Time;durP1;ratioP1;P1;durP2;ratioP2;P2;SDS_P1;SDS_P2;PMS_P1;PMS_P2;Temp;Humidity;BMP_temperature;BMP_pressure;BME280_temperature;BME280_humidity;BME280_pressure;Samples;Min_cycle;Max_cycle;Signal;HPM_P1;HPM_P2
2022/05/29 00:00:59;;;;;;;1.85;1.20;;;19.10;58.00;;;;;;10431156;28;20034;-57
2022/05/29 00:06:01;;;;;;;2.25;1.55;;;19.10;58.00;;;;;;10415429;28;20490;-57
2022/05/29 00:11:07;;;;;;;2.30;0.90;;;19.10;58.10;;;;;;10414281;28;20470;-57
2022/05/29 00:16:08;;;;;;;1.10;0.73;;;19.10;58.10;;;;;;10414052;28;20475;-57
2022/05/29 00:21:08;;;;;;;1.83;0.90;;;19.10;58.20;;;;;;10415088;28;20108;-58
2022/05/29 00:26:09;;;;;;;2.88;0.90;;;19.10;58.20;;;;;;10414588;28;20047;-57
2022/05/29 00:31:12;;;;;;;3.17;1.27;;;19.00;58.10;;;;;;10429923;28;20083;-57
2022/05/29 00:36:15;;;;;;;2.70;1.00;;;19.00;58.20;;;;;;10414271;28;20047;-57
2022/05/29 00:41:29;;;;;;;3.75;1.05;;;19.00;58.20;;;;;;10429566;28;20036;-57
2022/05/29 00:46:34;;;;;;;2.67;1.13;;;19.00;58.30;;;;;;10412221;28;20171;-57
2022/05/29 00:51:41;;;;;;;1.50;1.00;;;19.00;58.20;;;;;;10414103;28;20037;-56
2022/05/29 00:56:42;;;;;;;4.20;1.25;;;19.00;58.20;;;;;;10413823;28;20029;-57
2022/05/29 01:01:43;;;;;;;2.20;1.27;;;19.00;58.30;;;;;;10412346;28;20477;-57
2022/05/29 01:06:43;;;;;;;2.70;0.95;;;19.00;58.30;;;;;;10413045;28;20036;-57
2022/05/29 01:12:00;;;;;;;3.15;1.40;;;19.00;58.30;;;;;;10412791;28;20033;-57
2022/05/29 01:17:25;;;;;;;1.45;0.80;;;19.00;58.40;;;;;;10404186;28;20112;-57
2022/05/29 01:22:46;;;;;;;1.50;0.80;;;19.00;58.50;;;;;;10412096;28;20033;-58
2022/05/29 01:28:11;;;;;;;1.55;0.80;;;19.00;58.50;;;;;;10413072;28;20033;-58
2022/05/29 01:33:41;;;;;;;3.30;1.05;;;19.00;58.60;;;;;;10412380;28;20048;-57
2022/05/29 01:38:57;;;;;;;;;;;19.00;58.60;;;;;;10412296;28;20050;-57
2022/05/29 01:44:26;;;;;;;1.92;0.80;;;19.00;58.50;;;;;;10411221;28;19967;-57
2022/05/29 01:49:38;;;;;;;1.13;0.80;;;19.00;58.60;;;;;;10411395;28;20038;-58
2022/05/29 01:54:49;;;;;;;1.92;1.08;;;18.90;58.50;;;;;;10412268;28;20044;-58
2022/05/29 02:00:10;;;;;;;2.50;0.82;;;18.90;58.50;;;;;;10427714;28;20036;-58
2022/05/29 02:05:16;;;;;;;2.28;0.90;;;19.00;58.60;;;;;;10427539;28;20040;-57
2022/05/29 02:10:22;;;;;;;2.40;0.82;;;18.90;58.50;;;;;;10400848;28;20068;-57
2022/05/29 02:15:47;;;;;;;2.90;1.52;;;18.90;58.60;;;;;;10402611;28;20030;-57
2022/05/29 02:20:52;;;;;;;1.55;0.82;;;18.90;58.60;;;;;;10428923;28;20061;-57
2022/05/29 02:25:55;;;;;;;2.28;0.80;;;18.90;58.60;;;;;;10422286;28;20121;-57
2022/05/29 02:31:54;;;;;;;2.58;1.17;;;18.90;58.60;;;;;;10419335;28;20421;-65
2022/05/29 02:37:40;;;;;;;2.30;1.33;;;18.90;58.60;;;;;;10417575;28;20041;-65
2022/05/29 02:42:43;;;;;;;2.45;0.82;;;18.90;58.70;;;;;;10407654;28;20050;-65
2022/05/29 02:48:29;;;;;;;2.58;1.00;;;18.80;58.60;;;;;;10418401;28;20038;-63
2022/05/29 02:53:33;;;;;;;1.85;0.80;;;18.80;58.70;;;;;;10418167;28;20034;-63
2022/05/29 02:58:35;;;;;;;1.70;0.80;;;18.90;58.80;;;;;;10418120;28;20442;-65
2022/05/29 03:04:10;;;;;;;1.70;0.63;;;18.90;58.80;;;;;;10409399;28;20033;-63
2022/05/29 03:09:18;;;;;;;3.30;1.13;;;18.80;58.70;;;;;;10417465;28;20489;-64
2022/05/29 03:14:43;;;;;;;2.70;1.20;;;18.90;58.80;;;;;;10432802;28;20049;-65
2022/05/29 03:20:06;;;;;;;1.45;0.82;;;18.90;58.80;;;;;;10414822;28;20496;-64
2022/05/29 03:25:09;;;;;;;2.30;0.70;;;18.80;58.80;;;;;;10426200;28;20080;-65
2022/05/29 03:30:32;;;;;;;1.45;0.80;;;18.80;58.80;;;;;;10416455;28;20037;-64
2022/05/29 03:35:43;;;;;;;2.03;1.08;;;18.80;58.90;;;;;;10431256;28;20053;-64
2022/05/29 03:40:46;;;;;;;2.33;0.90;;;18.80;58.90;;;;;;10416107;28;20028;-58
2022/05/29 03:45:46;;;;;;;1.00;0.88;;;18.80;58.90;;;;;;10411738;28;20059;-57
2022/05/29 03:50:47;;;;;;;3.30;1.33;;;18.80;58.90;;;;;;10414382;28;20060;-57
2022/05/29 03:55:48;;;;;;;2.17;1.05;;;18.80;59.00;;;;;;10415606;28;20061;-58
2022/05/29 04:00:48;;;;;;;1.85;0.70;;;18.80;59.00;;;;;;10419320;28;20014;-58
2022/05/29 04:05:50;;;;;;;1.83;0.80;;;18.80;59.00;;;;;;10414995;28;20061;-57
2022/05/29 04:16:10;;;;;;;2.15;0.63;;;18.70;59.10;;;;;;10413204;28;20034;-57
2022/05/29 04:21:11;;;;;;;1.70;1.08;;;18.70;59.20;;;;;;10413589;28;20030;-57
2022/05/29 04:26:16;;;;;;;1.98;0.82;;;18.70;59.40;;;;;;10415052;28;20031;-57
2022/05/29 04:31:17;;;;;;;3.08;1.00;;;18.70;59.60;;;;;;10414557;28;20133;-57
2022/05/29 04:36:18;;;;;;;3.25;1.20;;;18.70;59.70;;;;;;10414409;28;20129;-57
2022/05/29 04:41:24;;;;;;;1.58;0.98;;;18.70;60.00;;;;;;10412799;28;20164;-57
2022/05/29 04:46:25;;;;;;;2.00;1.33;;;18.70;60.20;;;;;;10413629;28;20034;-57
2022/05/29 04:51:26;;;;;;;8.50;3.58;;;18.70;60.50;;;;;;10405271;28;20520;-57
2022/05/29 04:56:27;;;;;;;4.72;2.60;;;18.70;61.40;;;;;;10414644;28;20071;-56
2022/05/29 05:01:28;;;;;;;6.80;2.10;;;18.90;62.00;;;;;;10414132;28;20108;-56
2022/05/29 05:06:28;;;;;;;3.95;2.15;;;18.90;62.00;;;;;;10413206;28;20064;-56
2022/05/29 05:11:29;;;;;;;5.43;2.22;;;18.90;62.40;;;;;;10412818;28;20103;-59
2022/05/29 05:16:30;;;;;;;13.88;3.08;;;18.90;62.20;;;;;;10413064;28;20117;-55
2022/05/29 05:21:30;;;;;;;8.27;2.42;;;18.90;62.30;;;;;;10410858;28;20075;-54
2022/05/29 05:26:31;;;;;;;14.00;2.85;;;18.90;63.00;;;;;;10410632;28;20064;-55
2022/05/29 05:31:32;;;;;;;19.27;3.25;;;18.80;63.20;;;;;;10412667;28;20044;-56
2022/05/29 05:36:33;;;;;;;9.18;2.72;;;18.80;62.50;;;;;;10427949;28;20057;-56
2022/05/29 05:41:33;;;;;;;6.60;2.13;;;18.80;62.40;;;;;;10412615;28;20037;-56
2022/05/29 05:46:34;;;;;;;2.50;1.67;;;18.70;62.10;;;;;;10412510;28;20186;-56
2022/05/29 05:51:35;;;;;;;4.90;1.67;;;18.70;61.80;;;;;;10412565;28;20061;-56
2022/05/29 05:56:35;;;;;;;3.05;1.50;;;18.70;61.60;;;;;;10417335;28;20465;-56
2022/05/29 06:01:37;;;;;;;6.53;1.88;;;18.80;61.50;;;;;;10420208;28;20080;-56
2022/05/29 06:06:38;;;;;;;5.10;1.92;;;18.70;61.50;;;;;;10420381;28;20029;-56
2022/05/29 06:11:39;;;;;;;6.78;2.60;;;18.70;61.40;;;;;;10419925;28;20108;-56
2022/05/29 06:16:40;;;;;;;7.07;2.28;;;18.70;61.50;;;;;;10418920;28;20049;-56
2022/05/29 06:21:40;;;;;;;3.08;1.27;;;18.70;61.40;;;;;;10420739;28;20021;-56
2022/05/29 06:26:41;;;;;;;5.25;1.85;;;18.70;61.30;;;;;;10412988;28;20037;-56
2022/05/29 06:31:42;;;;;;;3.72;1.30;;;18.70;61.40;;;;;;10419281;28;20489;-56
2022/05/29 06:36:42;;;;;;;2.22;1.10;;;18.70;61.30;;;;;;10419186;28;20077;-57
2022/05/29 06:41:43;;;;;;;2.00;1.30;;;18.70;61.30;;;;;;10419056;28;20112;-55
2022/05/29 06:46:44;;;;;;;2.65;1.10;;;18.70;61.40;;;;;;10419064;28;20033;-56
2022/05/29 06:51:45;;;;;;;1.90;1.00;;;18.70;61.40;;;;;;10418848;28;20064;-54
2022/05/29 06:56:45;;;;;;;9.35;3.22;;;18.70;61.40;;;;;;10416890;28;20124;-56
2022/05/29 07:07:14;;;;;;;26.57;3.63;;;18.70;63.20;;;;;;10406997;28;20045;-55
2022/05/29 07:12:21;;;;;;;;;;;18.70;63.90;;;;;;10431825;28;20533;-53
2022/05/29 07:17:22;;;;;;;11.48;2.10;;;18.80;63.50;;;;;;10414736;28;19963;-52
2022/05/29 07:22:23;;;;;;;14.73;2.83;;;18.70;63.50;;;;;;10416115;28;20052;-52
2022/05/29 07:27:24;;;;;;;15.93;2.45;;;18.70;63.60;;;;;;10415018;28;20076;-49
2022/05/29 07:32:25;;;;;;;10.52;1.90;;;18.70;63.80;;;;;;10426699;28;20092;-54
2022/05/29 07:37:26;;;;;;;25.20;3.15;;;18.70;63.60;;;;;;10416510;28;20041;-52
2022/05/29 07:47:46;;;;;;;16.27;2.58;;;18.70;63.40;;;;;;10416144;28;20050;-52
2022/05/29 07:52:50;;;;;;;17.92;3.13;;;18.70;63.50;;;;;;10415137;28;20025;-55
2022/05/29 07:57:51;;;;;;;16.05;2.45;;;18.70;63.50;;;;;;10416089;28;20087;-56
2022/05/29 08:02:52;;;;;;;36.00;5.18;;;18.70;64.20;;;;;;10416085;28;20051;-53
2022/05/29 08:07:53;;;;;;;26.60;3.25;;;18.80;64.20;;;;;;10415714;28;20081;-52
2022/05/29 08:12:54;;;;;;;26.05;3.67;;;18.80;64.00;;;;;;10415414;28;20033;-53
2022/05/29 08:17:54;;;;;;;31.42;5.20;;;18.80;64.40;;;;;;10413184;28;20528;-55
2022/05/29 08:22:55;;;;;;;34.22;6.10;;;18.80;64.60;;;;;;10414000;28;20527;-54
2022/05/29 08:33:24;;;;;;;41.05;6.78;;;18.90;64.70;;;;;;10414729;28;20058;-55
2022/05/29 08:38:25;;;;;;;38.67;5.75;;;18.80;64.60;;;;;;10413260;28;20030;-51
2022/05/29 08:43:35;;;;;;;52.88;5.72;;;18.90;64.90;;;;;;10414147;28;20111;-53
2022/05/29 08:48:36;;;;;;;44.63;6.25;;;18.90;64.70;;;;;;10429292;28;20033;-52
2022/05/29 08:54:00;;;;;;;44.33;6.60;;;18.90;64.60;;;;;;10413539;28;20041;-52
2022/05/29 08:59:57;;;;;;;52.55;8.07;;;19.00;64.60;;;;;;10413811;28;20033;-52
2022/05/29 09:05:18;;;;;;;56.00;7.40;;;18.90;65.30;;;;;;10427921;28;20044;-50
2022/05/29 09:10:36;;;;;;;49.88;6.93;;;18.90;66.00;;;;;;10412209;28;20037;-54
2022/05/29 09:15:48;;;;;;;60.00;9.25;;;18.90;65.70;;;;;;10412336;28;20034;-55
2022/05/29 09:21:02;;;;;;;54.25;8.63;;;18.90;65.90;;;;;;10410065;28;20120;-54
2022/05/29 09:26:06;;;;;;;53.58;7.72;;;18.90;65.60;;;;;;10410526;28;20061;-55
2022/05/29 09:31:15;;;;;;;30.83;5.95;;;18.80;65.70;;;;;;10410644;28;20710;-55
2022/05/29 09:37:02;;;;;;;33.30;5.13;;;18.90;65.30;;;;;;10411139;28;20049;-56
2022/05/29 09:42:29;;;;;;;27.88;5.97;;;19.10;64.50;;;;;;10409080;28;20037;-57
2022/05/29 09:52:53;;;;;;;27.40;4.70;;;18.80;65.00;;;;;;10406390;28;20042;-58
2022/05/29 09:58:00;;;;;;;34.47;5.10;;;18.80;65.20;;;;;;10407682;28;20033;-57
2022/05/29 10:03:04;;;;;;;37.65;5.63;;;18.80;65.20;;;;;;10398641;28;20033;-57
2022/05/29 10:08:26;;;;;;;30.63;4.90;;;18.90;65.30;;;;;;10406545;28;20090;-56
2022/05/29 10:13:37;;;;;;;22.52;4.03;;;18.90;66.30;;;;;;10406586;28;20037;-53
2022/05/29 10:18:41;;;;;;;33.78;5.40;;;19.10;66.10;;;;;;10406417;28;20069;-57
2022/05/29 10:23:54;;;;;;;31.65;4.28;;;19.10;66.20;;;;;;10406457;28;20492;-51
2022/05/29 10:28:54;;;;;;;16.55;4.10;;;19.10;66.40;;;;;;10406001;28;20049;-55
2022/05/29 10:34:07;;;;;;;20.88;4.78;;;19.20;69.50;;;;;;10403720;28;20041;-55
2022/05/29 10:39:22;;;;;;;30.75;5.13;;;19.10;67.70;;;;;;10365619;28;20038;-56
2022/05/29 10:44:44;;;;;;;25.05;5.57;;;19.00;69.40;;;;;;10413791;28;20028;-55
2022/05/29 10:50:09;;;;;;;24.17;5.05;;;19.00;69.60;;;;;;10375817;28;20470;-55
2022/05/29 10:55:33;;;;;;;16.90;4.93;;;19.00;68.90;;;;;;10411336;28;20028;-56
2022/05/29 11:07:10;;;;;;;13.40;3.00;;;19.00;68.90;;;;;;10414288;28;20041;-55
2022/05/29 11:12:31;;;;;;;14.77;3.67;;;19.00;66.60;;;;;;10412683;28;20622;-54
2022/05/29 11:17:44;;;;;;;11.50;2.88;;;18.90;67.20;;;;;;10412475;28;20120;-54
2022/05/29 11:23:19;;;;;;;17.33;3.58;;;19.00;68.70;;;;;;10409690;28;20128;-55
2022/05/29 11:28:40;;;;;;;11.05;4.05;;;18.90;68.00;;;;;;10355980;28;20033;-55
2022/05/29 11:33:59;;;;;;;14.38;3.17;;;18.90;68.00;;;;;;10364038;28;20474;-55
2022/05/29 11:39:21;;;;;;;7.07;2.60;;;18.90;66.80;;;;;;10412337;28;20029;-55
2022/05/29 11:44:56;;;;;;;13.07;2.85;;;18.90;66.30;;;;;;10412711;28;20068;-55
2022/05/29 11:51:07;;;;;;;7.95;2.60;;;18.90;66.30;;;;;;10421731;28;20042;-56
2022/05/29 11:55:49;;;;;;;12.82;2.55;;;18.90;66.20;;;;;;10410883;28;20034;-54
2022/05/29 12:00:57;;;;;;;12.65;2.47;;;18.90;66.10;;;;;;10427172;28;20032;-53
2022/05/29 12:06:15;;;;;;;14.80;2.55;;;18.90;66.00;;;;;;10415757;28;20034;-55
2022/05/29 12:11:48;;;;;;;6.45;2.67;;;18.90;66.10;;;;;;10369485;28;20034;-54
2022/05/29 12:16:57;;;;;;;7.00;2.17;;;18.90;65.90;;;;;;10393709;28;20029;-55
2022/05/29 12:22:05;;;;;;;5.63;2.43;;;18.90;65.90;;;;;;10426120;28;20030;-55
2022/05/29 12:27:19;;;;;;;9.82;2.20;;;18.90;65.90;;;;;;10425996;28;20045;-54
2022/05/29 12:32:26;;;;;;;11.35;3.58;;;18.90;65.80;;;;;;10410436;28;20033;-55
2022/05/29 12:38:20;;;;;;;6.07;1.80;;;18.90;65.70;;;;;;10425619;28;20072;-55
2022/05/29 12:44:11;;;;;;;8.40;1.67;;;18.90;65.80;;;;;;10409700;28;20083;-54
2022/05/29 12:49:42;;;;;;;6.72;1.88;;;18.90;65.80;;;;;;10411020;28;20052;-54
2022/05/29 12:55:26;;;;;;;10.82;2.13;;;18.80;65.70;;;;;;10409913;28;20076;-55
2022/05/29 13:00:46;;;;;;;20.63;3.53;;;18.90;65.80;;;;;;10405720;28;20048;-51
2022/05/29 13:06:06;;;;;;;15.13;2.90;;;19.00;65.60;;;;;;10407717;28;20045;-52
2022/05/29 13:11:09;;;;;;;13.55;2.20;;;19.00;65.90;;;;;;10407597;28;20041;-50
2022/05/29 13:16:40;;;;;;;13.80;2.83;;;19.00;66.50;;;;;;10410516;28;20037;-54
2022/05/29 13:22:07;;;;;;;24.88;3.92;;;19.00;65.90;;;;;;10408931;28;20079;-57
2022/05/29 13:27:14;;;;;;;24.00;4.32;;;19.00;66.10;;;;;;10407811;28;20099;-53
2022/05/29 13:32:15;;;;;;;31.33;3.22;;;19.00;65.80;;;;;;10408597;28;20037;-54
2022/05/29 13:37:49;;;;;;;15.32;2.88;;;19.00;65.70;;;;;;10408470;28;20069;-52
2022/05/29 13:43:16;;;;;;;15.82;2.50;;;19.00;63.60;;;;;;10407810;28;20413;-54
2022/05/29 13:48:29;;;;;;;13.85;3.05;;;19.00;63.60;;;;;;10390597;28;20116;-54
2022/05/29 13:53:55;;;;;;;9.90;2.65;;;19.00;63.70;;;;;;10407595;28;20075;-53
2022/05/29 14:04:44;;;;;;;20.00;3.13;;;19.00;64.00;;;;;;10380405;28;20034;-51
2022/05/29 14:10:22;;;;;;;8.95;1.83;;;18.90;64.10;;;;;;10420545;28;20421;-53
2022/05/29 14:15:37;;;;;;;16.27;2.17;;;18.90;64.20;;;;;;10407983;28;20490;-52
2022/05/29 14:21:40;;;;;;;8.52;1.52;;;19.00;65.10;;;;;;10415617;28;20124;-53
2022/05/29 14:27:02;;;;;;;15.35;2.15;;;18.90;64.30;;;;;;10415531;28;20026;-51
2022/05/29 14:32:35;;;;;;;9.43;2.22;;;19.00;64.50;;;;;;10401488;28;20110;-52
2022/05/29 14:37:50;;;;;;;15.20;3.25;;;18.90;64.30;;;;;;10408387;28;20030;-49
2022/05/29 14:42:54;;;;;;;7.63;1.88;;;19.00;64.70;;;;;;10414235;28;20056;-49
2022/05/29 14:48:25;;;;;;;11.43;2.00;;;19.00;65.00;;;;;;10412507;28;20406;-51
2022/05/29 14:53:50;;;;;;;11.45;3.58;;;18.90;64.20;;;;;;10391065;28;20030;-54
2022/05/29 14:58:50;;;;;;;11.13;1.90;;;18.90;64.60;;;;;;10374003;28;20052;-51
2022/05/29 15:03:54;;;;;;;9.98;2.10;;;18.90;64.60;;;;;;10410829;28;20057;-51
2022/05/29 15:14:22;;;;;;;24.05;2.95;;;19.00;64.70;;;;;;10412371;28;20108;-55
2022/05/29 15:24:51;;;;;;;28.95;11.25;;;19.10;67.10;;;;;;10414934;28;20498;-56
2022/05/29 15:29:52;;;;;;;23.48;7.55;;;19.10;67.80;;;;;;10414201;28;20068;-56
2022/05/29 15:35:02;;;;;;;32.22;9.90;;;19.10;66.50;;;;;;10425480;28;20040;-51
2022/05/29 15:40:44;;;;;;;36.75;8.23;;;19.10;67.30;;;;;;10415752;28;20040;-55
2022/05/29 15:46:22;;;;;;;24.73;9.90;;;19.00;66.80;;;;;;10409972;28;20036;-56
2022/05/29 15:52:17;;;;;;;26.67;6.68;;;19.10;70.90;;;;;;10431652;28;20021;-52
2022/05/29 15:57:48;;;;;;;26.17;5.53;;;19.00;67.40;;;;;;10414977;28;20483;-51
2022/05/29 16:03:12;;;;;;;21.67;7.40;;;19.20;68.10;;;;;;10413077;28;20029;-54
2022/05/29 16:08:27;;;;;;;18.70;5.35;;;19.30;67.50;;;;;;10411673;28;20064;-54
2022/05/29 16:13:46;;;;;;;23.77;4.70;;;19.30;67.00;;;;;;10413933;28;20060;-54
2022/05/29 16:19:33;;;;;;;16.83;6.20;;;19.30;67.10;;;;;;10417417;28;20033;-50
2022/05/29 16:25:07;;;;;;;21.65;4.40;;;19.30;67.10;;;;;;10402896;28;20041;-49
2022/05/29 16:30:25;;;;;;;18.95;4.70;;;19.20;67.10;;;;;;10406446;28;20044;-56
2022/05/29 16:35:57;;;;;;;18.48;4.10;;;19.20;67.30;;;;;;10413445;28;20053;-53
2022/05/29 16:52:26;;;;;;;32.38;6.43;;;19.10;67.10;;;;;;10414012;28;20042;-52
2022/05/29 16:57:48;;;;;;;28.65;6.85;;;19.10;67.00;;;;;;10412021;28;20494;-51
2022/05/29 17:03:47;;;;;;;18.45;4.50;;;19.10;67.20;;;;;;10423049;28;20394;-50
2022/05/29 17:09:15;;;;;;;28.35;5.82;;;19.10;67.20;;;;;;10413687;28;20033;-54
2022/05/29 17:14:16;;;;;;;34.60;5.10;;;19.10;67.00;;;;;;10413055;28;20029;-52
2022/05/29 17:19:17;;;;;;;22.35;5.25;;;19.10;66.80;;;;;;10413247;28;20367;-48
2022/05/29 17:24:47;;;;;;;24.20;4.82;;;19.00;66.60;;;;;;10413245;28;20025;-48
2022/05/29 17:30:06;;;;;;;15.45;4.40;;;19.00;66.60;;;;;;10412661;28;20045;-53
2022/05/29 17:35:20;;;;;;;21.58;4.93;;;19.00;66.40;;;;;;10412574;28;20099;-53
2022/05/29 17:40:52;;;;;;;19.40;3.35;;;19.00;66.00;;;;;;10411484;28;20048;-53
2022/05/29 17:46:05;;;;;;;14.45;3.35;;;19.00;66.20;;;;;;10404739;28;20386;-55
2022/05/29 17:51:39;;;;;;;16.48;3.00;;;19.00;66.00;;;;;;10416269;28;20117;-54
2022/05/29 17:56:39;;;;;;;10.18;2.60;;;19.00;66.00;;;;;;10420527;28;20120;-53
2022/05/29 18:01:42;;;;;;;16.33;4.13;;;19.00;66.00;;;;;;10420580;28;20037;-54
2022/05/29 18:06:43;;;;;;;14.75;2.60;;;19.00;66.20;;;;;;10435598;28;20474;-55
2022/05/29 18:11:47;;;;;;;14.88;2.80;;;18.90;66.00;;;;;;10419272;28;20057;-53
2022/05/29 18:16:47;;;;;;;10.02;2.72;;;19.00;66.30;;;;;;10434803;28;20022;-53
2022/05/29 18:21:48;;;;;;;14.43;2.67;;;19.00;66.00;;;;;;10420076;28;20037;-54
2022/05/29 18:26:49;;;;;;;6.97;2.22;;;19.00;66.00;;;;;;10423425;28;20076;-54
2022/05/29 18:31:50;;;;;;;14.80;2.85;;;19.00;66.00;;;;;;10418827;28;20116;-55
2022/05/29 18:36:50;;;;;;;8.25;2.17;;;18.90;66.00;;;;;;10417956;28;20090;-53
2022/05/29 18:41:51;;;;;;;7.65;2.55;;;18.90;66.00;;;;;;10415496;28;20033;-56
2022/05/29 18:46:59;;;;;;;10.80;2.55;;;18.90;66.00;;;;;;10425389;28;20113;-56
2022/05/29 18:52:01;;;;;;;7.55;2.03;;;18.90;66.00;;;;;;10434012;28;20394;-53
2022/05/29 18:57:03;;;;;;;12.52;2.88;;;18.90;66.00;;;;;;10418537;28;20549;-55
2022/05/29 19:02:05;;;;;;;10.07;1.77;;;19.00;66.70;;;;;;10417389;28;20549;-53
2022/05/29 19:07:06;;;;;;;9.25;2.40;;;19.00;66.40;;;;;;10418014;28;20041;-55
2022/05/29 19:12:08;;;;;;;5.70;2.53;;;19.00;66.60;;;;;;10410963;28;20120;-54
2022/05/29 19:18:09;;;;;;;6.70;2.72;;;19.00;66.90;;;;;;10415642;28;20056;-55
2022/05/29 19:22:30;;;;;;;13.88;4.32;;;19.00;67.20;;;;;;10412515;28;20068;-55
2022/05/29 19:27:32;;;;;;;6.97;3.67;;;19.00;67.40;;;;;;10416432;28;20120;-56
2022/05/29 19:32:33;;;;;;;7.65;4.28;;;19.00;67.60;;;;;;10415415;28;20037;-57
2022/05/29 19:37:37;;;;;;;6.95;3.45;;;19.00;68.20;;;;;;10413509;28;20029;-55
2022/05/29 19:42:39;;;;;;;8.15;3.72;;;19.00;67.50;;;;;;10413205;28;20029;-56
2022/05/29 19:47:40;;;;;;;7.50;3.38;;;19.00;67.20;;;;;;10431231;28;20065;-56
2022/05/29 19:52:42;;;;;;;5.70;3.47;;;19.00;67.20;;;;;;10416558;28;20026;-56
2022/05/29 19:57:43;;;;;;;6.93;3.28;;;18.90;67.10;;;;;;10416661;28;20490;-55
2022/05/29 20:02:43;;;;;;;5.53;3.00;;;18.80;67.10;;;;;;10414507;28;20029;-56
2022/05/29 20:07:44;;;;;;;6.72;2.63;;;18.90;67.30;;;;;;10414594;28;20361;-55
2022/05/29 20:12:47;;;;;;;5.40;2.50;;;18.80;67.10;;;;;;10402011;28;20043;-56
2022/05/29 20:17:48;;;;;;;7.20;2.88;;;18.80;66.70;;;;;;10416958;28;20179;-56
2022/05/29 20:22:49;;;;;;;7.25;2.22;;;18.80;66.60;;;;;;10413892;28;20121;-55
2022/05/29 20:27:49;;;;;;;4.38;2.70;;;18.80;66.60;;;;;;10415263;28;20041;-56
2022/05/29 20:32:50;;;;;;;5.35;2.70;;;18.80;66.40;;;;;;10413514;28;20488;-55
2022/05/29 20:37:51;;;;;;;7.80;3.72;;;18.80;66.30;;;;;;10421406;28;20061;-55
2022/05/29 20:42:51;;;;;;;5.28;2.70;;;18.80;66.80;;;;;;10413514;28;20072;-56
2022/05/29 20:47:52;;;;;;;7.55;3.38;;;18.80;66.10;;;;;;10413133;28;20128;-56
2022/05/29 20:52:54;;;;;;;4.35;1.88;;;18.80;66.00;;;;;;10413925;28;20067;-55
2022/05/29 20:58:00;;;;;;;5.35;1.95;;;18.70;65.90;;;;;;10413783;28;20025;-56
2022/05/29 21:03:02;;;;;;;5.32;2.40;;;18.70;65.80;;;;;;10413966;28;20049;-55
2022/05/29 21:08:05;;;;;;;5.80;2.30;;;18.70;65.80;;;;;;10413553;28;20037;-54
2022/05/29 21:13:06;;;;;;;5.47;1.90;;;18.70;65.70;;;;;;10413526;28;20117;-55
2022/05/29 21:18:06;;;;;;;6.25;1.83;;;18.70;65.80;;;;;;10415232;28;20104;-56
2022/05/29 21:23:08;;;;;;;5.15;2.13;;;18.70;65.80;;;;;;10413244;28;20029;-56
2022/05/29 21:28:09;;;;;;;2.45;1.27;;;18.70;65.80;;;;;;10412629;28;20064;-56
2022/05/29 21:33:10;;;;;;;4.05;1.40;;;18.70;65.60;;;;;;10412746;28;20450;-56
2022/05/29 21:38:10;;;;;;;3.17;1.50;;;18.70;65.50;;;;;;10412863;28;20117;-56
2022/05/29 21:43:11;;;;;;;3.13;1.40;;;18.70;65.40;;;;;;10412830;28;20417;-55
2022/05/29 21:48:14;;;;;;;2.58;1.40;;;18.70;65.40;;;;;;10413224;28;20432;-55
2022/05/29 21:53:15;;;;;;;3.00;1.20;;;18.70;65.30;;;;;;10412482;28;20040;-56
2022/05/29 21:58:15;;;;;;;1.88;1.10;;;18.70;65.30;;;;;;10412508;28;20036;-55
2022/05/29 22:03:17;;;;;;;4.25;1.55;;;18.70;65.20;;;;;;10412918;28;20053;-56
2022/05/29 22:08:18;;;;;;;5.93;1.30;;;18.70;65.20;;;;;;10427113;28;20038;-55
2022/05/29 22:13:20;;;;;;;4.15;1.02;;;18.70;65.20;;;;;;10411540;28;20025;-56
2022/05/29 22:18:21;;;;;;;2.92;1.05;;;18.70;65.10;;;;;;10413808;28;20044;-56
2022/05/29 22:23:23;;;;;;;3.35;1.27;;;18.70;65.10;;;;;;10427449;28;20047;-56
2022/05/29 22:28:24;;;;;;;3.33;1.25;;;18.60;65.10;;;;;;10411886;28;20053;-55
2022/05/29 22:33:36;;;;;;;3.17;1.52;;;18.60;65.00;;;;;;10410525;28;20117;-56
2022/05/29 22:38:37;;;;;;;2.45;1.05;;;18.60;65.10;;;;;;10416448;28;20040;-55
2022/05/29 22:43:40;;;;;;;2.42;0.95;;;18.60;65.10;;;;;;10419345;28;20041;-56
2022/05/29 22:48:57;;;;;;;2.80;1.38;;;18.60;65.00;;;;;;10419116;28;20033;-55
2022/05/29 22:54:16;;;;;;;2.85;1.17;;;18.60;65.00;;;;;;10418968;28;20052;-55
2022/05/29 22:59:17;;;;;;;4.13;0.97;;;18.60;64.90;;;;;;10401574;28;20029;-55
2022/05/29 23:04:44;;;;;;;3.47;1.13;;;18.60;64.90;;;;;;10417416;28;20108;-55
2022/05/29 23:09:44;;;;;;;3.08;1.42;;;18.60;64.90;;;;;;10416631;28;20041;-55
2022/05/29 23:14:45;;;;;;;2.38;0.95;;;18.60;64.80;;;;;;10416823;28;20055;-56
2022/05/29 23:19:46;;;;;;;2.97;1.42;;;18.60;64.80;;;;;;10419182;28;20086;-56
2022/05/29 23:24:59;;;;;;;3.53;1.13;;;18.60;64.80;;;;;;10417737;28;20478;-55
2022/05/29 23:30:06;;;;;;;2.88;0.80;;;18.60;64.80;;;;;;10417466;28;20042;-56
2022/05/29 23:35:08;;;;;;;2.78;1.33;;;18.60;64.70;;;;;;10415983;28;20041;-55
2022/05/29 23:40:12;;;;;;;2.67;1.27;;;18.60;64.70;;;;;;10415902;28;20033;-56
2022/05/29 23:45:18;;;;;;;3.08;1.25;;;18.50;64.60;;;;;;10415756;28;20037;-55
2022/05/29 23:50:19;;;;;;;2.40;0.80;;;18.50;64.60;;;;;;10416185;28;20375;-55
2022/05/29 23:55:20;;;;;;;2.35;1.02;;;18.50;64.70;;;;;;10416747;28;20049;-55
